createdAt,value
2022-10-11T00:04:30.868Z,9.30
2022-10-11T00:09:36.286Z,9.20
2022-10-11T00:14:41.593Z,9.00
2022-10-11T00:19:46.679Z,8.80
2022-10-11T00:24:53.290Z,8.70
2022-10-11T00:29:59.234Z,8.50
2022-10-11T00:35:06.727Z,8.40
2022-10-11T00:40:15.037Z,8.40
2022-10-11T00:45:32.460Z,8.30
2022-10-11T00:50:38.515Z,8.20
2022-10-11T00:55:46.716Z,8.20
2022-10-11T01:00:53.846Z,8.20
2022-10-11T01:05:59.759Z,8.30
2022-10-11T01:11:05.470Z,8.40
2022-10-11T01:16:16.389Z,8.40
2022-10-11T01:21:59.192Z,8.40
2022-10-11T01:27:28.450Z,8.30
2022-10-11T01:32:42.452Z,8.30
2022-10-11T01:37:56.098Z,8.20
2022-10-11T01:43:03.010Z,8.20
2022-10-11T01:48:10.958Z,8.20
2022-10-11T01:53:38.553Z,8.30
2022-10-11T01:59:01.446Z,8.40
2022-10-11T02:04:09.637Z,8.50
2022-10-11T02:09:18.129Z,8.60
2022-10-11T02:14:26.451Z,8.70
2022-10-11T02:19:34.574Z,8.80
2022-10-11T02:24:43.022Z,9.00
2022-10-11T02:29:51.434Z,9.10
2022-10-11T02:34:59.283Z,9.30
2022-10-11T02:40:16.422Z,9.50
2022-10-11T02:45:27.343Z,9.70
2022-10-11T02:50:33.283Z,9.70
2022-10-11T02:55:38.928Z,9.60
2022-10-11T03:00:44.362Z,9.60
2022-10-11T03:05:49.685Z,9.60
2022-10-11T03:10:55.490Z,9.70
2022-10-11T03:16:07.406Z,9.80
2022-10-11T03:21:07.581Z,10.00
2022-10-11T03:26:12.731Z,10.10
2022-10-11T03:31:18.980Z,10.10
2022-10-11T03:36:24.155Z,10.10
2022-10-11T03:41:29.403Z,10.00
2022-10-11T03:46:34.972Z,10.00
2022-10-11T03:51:40.148Z,9.90
2022-10-11T03:56:45.483Z,9.80
2022-10-11T04:01:50.701Z,9.70
2022-10-11T04:06:55.906Z,9.60
2022-10-11T04:12:01.738Z,9.60
2022-10-11T04:17:07.475Z,9.40
2022-10-11T04:22:12.806Z,9.40
2022-10-11T04:27:17.980Z,9.30
2022-10-11T04:32:24.772Z,9.30
2022-10-11T04:37:30.063Z,9.30
2022-10-11T04:42:36.022Z,9.30
2022-10-11T04:47:41.296Z,9.20
2022-10-11T04:52:46.499Z,9.20
2022-10-11T04:57:51.690Z,9.30
2022-10-11T05:02:57.187Z,9.30
2022-10-11T05:08:02.329Z,9.30
2022-10-11T05:13:07.747Z,9.30
2022-10-11T05:18:12.981Z,9.30
2022-10-11T05:23:18.078Z,9.20
2022-10-11T05:28:23.447Z,9.10
2022-10-11T05:33:28.872Z,9.10
2022-10-11T05:38:34.725Z,9.10
2022-10-11T05:43:39.896Z,9.10
2022-10-11T05:48:45.673Z,9.10
2022-10-11T05:53:50.865Z,9.10
2022-10-11T05:59:01.363Z,9.20
2022-10-11T06:04:04.936Z,9.20
2022-10-11T06:09:10.194Z,9.30
2022-10-11T06:14:17.047Z,9.40
2022-10-11T06:19:22.260Z,9.50
2022-10-11T06:24:27.654Z,9.80
2022-10-11T06:29:32.839Z,10.10
2022-10-11T06:34:38.034Z,10.30
2022-10-11T06:39:43.992Z,10.60
2022-10-11T06:44:49.227Z,10.90
2022-10-11T06:49:54.507Z,11.10
2022-10-11T06:54:59.768Z,11.40
2022-10-11T07:00:11.768Z,11.70
2022-10-11T07:05:14.624Z,12.00
2022-10-11T07:10:20.037Z,12.40
2022-10-11T07:15:25.380Z,12.70
2022-10-11T07:20:30.760Z,13.10
2022-10-11T07:25:36.177Z,13.20
2022-10-11T07:30:42.703Z,13.60
2022-10-11T07:35:48.728Z,13.80
2022-10-11T07:40:54.268Z,14.00
2022-10-11T07:46:01.319Z,14.20
2022-10-11T07:51:09.686Z,14.20
2022-10-11T07:56:17.797Z,14.20
2022-10-11T08:01:24.017Z,14.20
2022-10-11T08:06:32.892Z,14.50
2022-10-11T08:11:40.342Z,14.70
2022-10-11T08:16:45.746Z,14.80
2022-10-11T08:21:51.115Z,14.90
2022-10-11T08:26:56.940Z,14.80
2022-10-11T08:32:02.438Z,15.00
2022-10-11T08:37:07.707Z,15.50
2022-10-11T08:42:18.694Z,15.80
2022-10-11T08:47:35.891Z,16.10
2022-10-11T08:52:56.136Z,16.30
2022-10-11T08:58:03.211Z,16.80
2022-10-11T09:03:39.117Z,17.10
2022-10-11T09:09:06.021Z,17.00
2022-10-11T09:14:16.969Z,17.20
2022-10-11T09:19:34.169Z,17.50
2022-10-11T09:24:56.625Z,17.60
2022-10-11T09:30:16.887Z,17.70
2022-10-11T09:35:23.629Z,17.50
2022-10-11T09:40:51.876Z,17.70
2022-10-11T09:45:57.235Z,17.60
2022-10-11T09:51:08.302Z,18.10
2022-10-11T09:56:13.961Z,18.30
2022-10-11T10:01:28.670Z,18.50
2022-10-11T10:06:34.158Z,18.70
2022-10-11T10:11:39.500Z,19.10
2022-10-11T10:16:44.837Z,18.80
2022-10-11T10:21:53.002Z,18.80
2022-10-11T10:27:20.805Z,18.80
2022-10-11T10:32:28.988Z,19.00
2022-10-11T10:37:37.145Z,19.40
2022-10-11T10:42:42.419Z,19.50
2022-10-11T10:48:05.629Z,19.10
2022-10-11T10:53:37.035Z,19.00
2022-10-11T10:58:57.749Z,19.20
2022-10-11T11:04:32.859Z,18.30
2022-10-11T11:09:52.758Z,17.50
2022-10-11T11:15:03.870Z,17.30
2022-10-11T11:20:12.052Z,17.00
2022-10-11T11:25:41.388Z,17.60
2022-10-11T11:31:00.405Z,17.90
2022-10-11T11:36:08.877Z,16.90
2022-10-11T11:41:26.306Z,16.30
2022-10-11T11:46:35.081Z,16.90
2022-10-11T11:51:43.340Z,16.90
2022-10-11T11:56:57.247Z,17.30
2022-10-11T12:02:35.517Z,17.50
2022-10-11T12:07:55.973Z,17.90
2022-10-11T12:13:19.156Z,18.00
2022-10-11T12:18:24.498Z,17.60
2022-10-11T12:23:35.660Z,17.60
2022-10-11T12:28:48.148Z,17.30
2022-10-11T12:39:23.500Z,17.60
2022-10-11T12:44:31.642Z,17.50
2022-10-11T12:49:48.487Z,17.50
2022-10-11T12:55:14.672Z,17.80
2022-10-11T13:00:30.300Z,17.80
2022-10-11T13:05:50.975Z,17.60
2022-10-11T13:11:00.607Z,17.50
2022-10-11T13:16:11.354Z,17.30
2022-10-11T13:21:38.885Z,16.80
2022-10-11T13:26:47.340Z,16.10
2022-10-11T13:31:52.583Z,15.60
2022-10-11T13:36:59.717Z,15.50
2022-10-11T13:42:08.986Z,15.70
2022-10-11T13:47:20.193Z,15.90
2022-10-11T13:52:28.568Z,16.00
2022-10-11T13:57:44.170Z,16.00
2022-10-11T14:03:10.123Z,16.10
2022-10-11T14:08:33.043Z,16.00
2022-10-11T14:13:40.660Z,16.00
2022-10-11T14:18:48.905Z,16.00
2022-10-11T14:23:57.044Z,16.00
2022-10-11T14:29:06.381Z,16.10
2022-10-11T14:34:23.949Z,16.10
2022-10-11T14:39:31.086Z,16.10
2022-10-11T14:44:36.396Z,16.10
2022-10-11T14:49:41.682Z,16.00
2022-10-11T14:54:48.940Z,15.80
2022-10-11T14:59:54.721Z,15.50
2022-10-11T15:05:01.030Z,15.20
2022-10-11T15:10:13.014Z,14.90
2022-10-11T15:15:21.287Z,14.70
2022-10-11T15:20:42.106Z,14.40
2022-10-11T15:25:47.252Z,14.30
2022-10-11T15:30:54.260Z,14.10
2022-10-11T15:36:00.099Z,13.80
2022-10-11T15:41:05.486Z,13.50
2022-10-11T15:46:17.891Z,13.30
2022-10-11T15:51:23.596Z,12.90
2022-10-11T15:56:33.590Z,12.60
2022-10-11T16:01:35.823Z,12.40
2022-10-11T16:06:41.642Z,12.20
2022-10-11T16:11:47.005Z,11.90
2022-10-11T16:16:52.261Z,11.60
2022-10-11T16:21:57.647Z,11.40
2022-10-11T16:27:03.202Z,11.20
2022-10-11T16:32:08.542Z,10.90
2022-10-11T16:37:14.150Z,10.80
2022-10-11T16:42:20.533Z,10.70
2022-10-11T16:47:27.304Z,10.60
2022-10-11T16:52:32.886Z,10.40
2022-10-11T16:57:42.144Z,10.20
2022-10-11T17:02:47.316Z,10.10
2022-10-11T17:07:54.004Z,9.90
2022-10-11T17:12:59.139Z,9.80
2022-10-11T17:18:04.788Z,9.60
2022-10-11T17:23:10.152Z,9.40
2022-10-11T17:28:15.417Z,9.30
2022-10-11T17:33:20.562Z,9.20
2022-10-11T17:38:29.830Z,9.10
2022-10-11T17:43:40.242Z,9.00
2022-10-11T17:48:48.184Z,8.80
2022-10-11T17:53:53.629Z,8.70
2022-10-11T17:59:01.391Z,8.50
2022-10-11T18:04:11.689Z,8.50
2022-10-11T18:09:18.849Z,8.40
2022-10-11T18:14:24.458Z,8.30
2022-10-11T18:19:29.620Z,8.20
2022-10-11T18:24:34.869Z,8.10
2022-10-11T18:29:40.096Z,8.00
2022-10-11T18:34:45.638Z,7.90
2022-10-11T18:39:50.841Z,7.80
2022-10-11T18:44:57.213Z,7.70
2022-10-11T18:50:17.750Z,7.60
2022-10-11T18:55:22.974Z,7.50
2022-10-11T19:00:40.646Z,7.40
2022-10-11T19:05:37.945Z,7.30
2022-10-11T19:10:43.155Z,7.30
2022-10-11T19:15:48.484Z,7.20
2022-10-11T19:20:53.781Z,7.10
2022-10-11T19:25:59.037Z,7.00
2022-10-11T19:31:10.138Z,7.00
2022-10-11T19:36:15.797Z,6.90
2022-10-11T19:41:22.060Z,6.80
2022-10-11T19:51:38.488Z,6.60
2022-10-11T19:56:44.755Z,6.60
2022-10-11T20:01:53.038Z,6.50
2022-10-11T20:06:56.672Z,6.40
2022-10-11T20:12:01.879Z,6.30
2022-10-11T20:17:07.097Z,6.30
2022-10-11T20:22:12.323Z,6.20
2022-10-11T20:27:17.379Z,6.10
2022-10-11T20:32:22.438Z,6.10
2022-10-11T20:37:27.525Z,6.00
2022-10-11T20:42:32.747Z,6.00
2022-10-11T20:47:38.957Z,5.90
2022-10-11T20:52:44.223Z,5.80
2022-10-11T20:57:49.846Z,5.80
2022-10-11T21:02:54.959Z,5.70
2022-10-11T21:08:00.163Z,5.60
2022-10-11T21:13:06.211Z,5.60
2022-10-11T21:18:12.377Z,5.50
2022-10-11T21:23:19.230Z,5.50
2022-10-11T21:28:24.547Z,5.40
2022-10-11T21:33:30.649Z,5.40
2022-10-11T21:38:37.221Z,5.40
2022-10-11T21:43:42.731Z,5.30
2022-10-11T21:48:50.163Z,5.20
2022-10-11T21:53:56.493Z,5.20
2022-10-11T21:59:01.630Z,5.20
2022-10-11T22:04:10.287Z,5.10
2022-10-11T22:09:16.739Z,5.00
2022-10-11T22:14:22.651Z,5.00
2022-10-11T22:19:27.951Z,4.90
2022-10-11T22:24:33.123Z,4.80
2022-10-11T22:29:38.186Z,4.80
2022-10-11T22:34:43.526Z,4.80
2022-10-11T22:39:48.771Z,4.70
2022-10-11T22:44:54.207Z,4.70
2022-10-11T22:50:00.480Z,4.70
2022-10-11T22:55:06.440Z,4.60
2022-10-11T23:00:12.316Z,4.60
2022-10-11T23:05:17.587Z,4.50
2022-10-11T23:10:22.737Z,4.40
2022-10-11T23:15:27.911Z,4.40
2022-10-11T23:20:32.978Z,4.30
2022-10-11T23:25:38.306Z,4.40
2022-10-11T23:30:43.393Z,4.30
2022-10-11T23:35:48.628Z,4.20
2022-10-11T23:40:55.014Z,4.20
2022-10-11T23:46:01.309Z,4.10
2022-10-11T23:51:07.210Z,4.00
2022-10-11T23:56:13.501Z,3.90
